Time;durP1;ratioP1;P1;durP2;ratioP2;P2;SDS_P1;SDS_P2;PMS_P1;PMS_P2;Temp;Humidity;BMP_temperature;BMP_pressure;BME280_temperature;BME280_humidity;BME280_pressure;Samples;Min_cycle;Max_cycle;Signal;HPM_P1;HPM_P2
2023/05/01 00:02:04;;;;;;;3.25;2.30;;;;;;;;;;5020051;28;90028;-68
2023/05/01 00:04:32;;;;;;;7.55;2.38;;;;;;;;;;5046344;27;87964;-68
2023/05/01 00:06:58;;;;;;;6.22;2.50;;;;;;;;;;5056019;27;88879;-68
2023/05/01 00:09:27;;;;;;;4.68;2.38;;;;;;;;;;5059847;27;89992;-68
2023/05/01 00:11:54;;;;;;;3.95;2.92;;;;;;;;;;5057323;27;88655;-68
2023/05/01 00:14:20;;;;;;;3.15;2.42;;;;;;;;;;5057056;27;88509;-68
2023/05/01 00:16:46;;;;;;;3.03;2.33;;;;;;;;;;5054692;27;88728;-68
2023/05/01 00:19:17;;;;;;;4.00;2.35;;;;;;;;;;5056977;27;89332;-68
2023/05/01 00:21:44;;;;;;;;;;;;;;;;;;5057955;27;90227;-68
2023/05/01 00:24:11;;;;;;;5.80;2.53;;;;;;;;;;5058438;27;117913;-68
2023/05/01 00:26:37;;;;;;;4.63;2.53;;;;;;;;;;5056971;27;88217;-68
2023/05/01 00:29:03;;;;;;;6.90;2.25;;;;;;;;;;5055945;27;89980;-68
2023/05/01 00:31:30;;;;;;;6.78;2.70;;;;;;;;;;5067027;27;88835;-68
2023/05/01 00:33:56;;;;;;;7.90;2.45;;;;;;;;;;5075327;27;88928;-68
2023/05/01 00:36:22;;;;;;;5.32;2.38;;;;;;;;;;5071400;27;89210;-68
2023/05/01 00:38:49;;;;;;;4.47;2.20;;;;;;;;;;5071095;27;88814;-69
2023/05/01 00:41:16;;;;;;;4.80;2.33;;;;;;;;;;5076038;27;89745;-68
2023/05/01 00:43:42;;;;;;;4.43;2.58;;;;;;;;;;5067153;27;88545;-68
2023/05/01 00:46:09;;;;;;;8.60;2.88;;;;;;;;;;5065871;27;88832;-68
2023/05/01 00:48:36;;;;;;;2.72;2.20;;;;;;;;;;5052556;27;89824;-68
2023/05/01 00:51:06;;;;;;;4.40;2.33;;;;;;;;;;5056494;27;88120;-68
2023/05/01 00:53:33;;;;;;;9.70;2.60;;;;;;;;;;5070778;27;88604;-68
2023/05/01 00:55:59;;;;;;;2.75;2.28;;;;;;;;;;5069440;27;88809;-69
2023/05/01 00:58:26;;;;;;;2.47;2.05;;;;;;;;;;5070234;27;89478;-68
2023/05/01 01:00:52;;;;;;;8.02;2.83;;;;;;;;;;5051466;27;89043;-68
2023/05/01 01:03:19;;;;;;;2.85;2.28;;;;;;;;;;5051580;27;89372;-68
2023/05/01 01:05:49;;;;;;;5.97;2.40;;;;;;;;;;5035996;28;88717;-69
2023/05/01 01:08:15;;;;;;;;;;;;;;;;;;5036886;28;90221;-69
2023/05/01 01:10:53;;;;;;;9.38;2.38;;;;;;;;;;5036713;28;118435;-68
2023/05/01 01:13:25;;;;;;;2.90;2.70;;;;;;;;;;5036757;28;89028;-68
2023/05/01 01:16:30;;;;;;;8.63;3.08;;;;;;;;;;5039356;28;90126;-68
2023/05/01 01:19:00;;;;;;;4.45;3.05;;;;;;;;;;4953673;28;90362;-68
2023/05/01 01:21:31;;;;;;;5.10;2.80;;;;;;;;;;4953755;28;90100;-68
2023/05/01 01:24:15;;;;;;;5.28;2.72;;;;;;;;;;4954247;28;88105;-69
2023/05/01 01:26:57;;;;;;;6.70;2.22;;;;;;;;;;4954768;28;89880;-68
2023/05/01 01:29:23;;;;;;;4.85;2.80;;;;;;;;;;4956421;28;88991;-69
2023/05/01 01:32:02;;;;;;;7.88;2.80;;;;;;;;;;4956384;28;88765;-68
2023/05/01 01:34:34;;;;;;;7.00;2.72;;;;;;;;;;4956692;28;88634;-69
2023/05/01 01:37:18;;;;;;;8.05;2.60;;;;;;;;;;4957206;28;88996;-70
2023/05/01 01:39:47;;;;;;;6.07;3.10;;;;;;;;;;4960033;28;87307;-69
2023/05/01 01:42:25;;;;;;;6.47;3.00;;;;;;;;;;4957369;28;89024;-69
2023/05/01 01:44:54;;;;;;;5.20;3.03;;;;;;;;;;4956093;28;88967;-69
2023/05/01 01:47:25;;;;;;;6.03;2.85;;;;;;;;;;4956579;28;89079;-69
2023/05/01 01:49:52;;;;;;;4.32;2.85;;;;;;;;;;5000643;27;89276;-69
2023/05/01 01:52:19;;;;;;;5.40;2.40;;;;;;;;;;5037764;27;88119;-69
2023/05/01 01:54:49;;;;;;;4.20;2.80;;;;;;;;;;5052805;27;89729;-69
2023/05/01 01:57:17;;;;;;;12.20;2.88;;;;;;;;;;5040742;27;89161;-69
2023/05/01 01:59:45;;;;;;;4.72;2.70;;;;;;;;;;5050596;27;88758;-69
2023/05/01 02:02:12;;;;;;;4.60;2.63;;;;;;;;;;5024635;28;89241;-69
2023/05/01 02:04:41;;;;;;;8.10;2.67;;;;;;;;;;5050586;27;87436;-69
2023/05/01 02:07:08;;;;;;;3.33;2.90;;;;;;;;;;5052583;27;88091;-68
2023/05/01 02:09:35;;;;;;;3.78;2.80;;;;;;;;;;5058193;27;89130;-69
2023/05/01 02:12:04;;;;;;;7.35;3.35;;;;;;;;;;5058401;27;88798;-68
2023/05/01 02:14:30;;;;;;;5.97;3.40;;;;;;;;;;5058889;27;89475;-68
2023/05/01 02:16:57;;;;;;;6.35;3.00;;;;;;;;;;5058565;27;88961;-68
2023/05/01 02:19:24;;;;;;;7.05;2.50;;;;;;;;;;5058819;27;88039;-69
2023/05/01 02:21:52;;;;;;;3.00;2.70;;;;;;;;;;5062216;27;89762;-69
2023/05/01 02:24:21;;;;;;;9.65;2.80;;;;;;;;;;5058467;27;88364;-68
2023/05/01 02:26:50;;;;;;;5.95;2.63;;;;;;;;;;5041668;27;88680;-68
2023/05/01 02:29:17;;;;;;;2.83;2.58;;;;;;;;;;5058970;27;89176;-68
2023/05/01 02:31:43;;;;;;;4.50;2.85;;;;;;;;;;5057620;27;88916;-68
2023/05/01 02:34:10;;;;;;;4.22;2.72;;;;;;;;;;5058229;27;89796;-68
2023/05/01 02:36:36;;;;;;;6.93;3.13;;;;;;;;;;5064570;27;90971;-68
2023/05/01 02:39:03;;;;;;;6.95;2.90;;;;;;;;;;5073283;27;89033;-68
2023/05/01 02:41:30;;;;;;;7.25;2.65;;;;;;;;;;5079188;27;88750;-68
2023/05/01 03:04:07;;;;;;;2.88;2.45;;;;;;;;;;4781475;27;91863;-68
2023/05/01 03:06:33;;;;;;;6.75;3.00;;;;;;;;;;5040034;27;89066;-68
2023/05/01 03:09:00;;;;;;;3.40;2.63;;;;;;;;;;5046087;27;88422;-68
2023/05/01 03:11:26;;;;;;;6.68;2.63;;;;;;;;;;5057144;27;88006;-68
2023/05/01 03:13:52;;;;;;;4.18;2.65;;;;;;;;;;5040616;27;89983;-68
2023/05/01 03:16:19;;;;;;;6.50;2.88;;;;;;;;;;5030802;27;89768;-69
2023/05/01 03:18:45;;;;;;;5.13;2.80;;;;;;;;;;5040540;27;88807;-68
2023/05/01 03:21:11;;;;;;;2.50;2.30;;;;;;;;;;5057956;27;88839;-68
2023/05/01 03:23:38;;;;;;;4.15;2.67;;;;;;;;;;5028338;27;88383;-68
2023/05/01 03:26:04;;;;;;;3.58;2.92;;;;;;;;;;5022080;28;88369;-69
2023/05/01 03:28:31;;;;;;;5.65;2.95;;;;;;;;;;5040743;27;89037;-68
2023/05/01 03:30:57;;;;;;;4.10;2.55;;;;;;;;;;5039268;27;89196;-69
2023/05/01 03:33:25;;;;;;;4.40;2.80;;;;;;;;;;5039987;27;89488;-68
2023/05/01 03:36:02;;;;;;;4.90;3.17;;;;;;;;;;5037130;28;88024;-68
2023/05/01 03:38:29;;;;;;;3.38;3.08;;;;;;;;;;5035304;27;88275;-68
2023/05/01 03:40:56;;;;;;;5.85;3.03;;;;;;;;;;5044702;27;89057;-68
2023/05/01 03:43:23;;;;;;;5.53;3.03;;;;;;;;;;5046685;27;88314;-68
2023/05/01 03:45:50;;;;;;;4.22;3.00;;;;;;;;;;5055885;27;89833;-69
2023/05/01 03:48:17;;;;;;;5.65;3.10;;;;;;;;;;5050815;27;88524;-69
2023/05/01 03:50:43;;;;;;;6.05;3.55;;;;;;;;;;5042949;27;88916;-68
2023/05/01 03:53:09;;;;;;;9.77;3.63;;;;;;;;;;5054562;27;88822;-68
2023/05/01 03:55:36;;;;;;;6.80;3.38;;;;;;;;;;5043868;27;90560;-68
2023/05/01 03:58:02;;;;;;;3.95;3.13;;;;;;;;;;5030631;28;90549;-68
2023/05/01 04:00:28;;;;;;;8.07;3.20;;;;;;;;;;5017410;28;90039;-68
2023/05/01 04:02:55;;;;;;;5.68;2.70;;;;;;;;;;5030448;28;87951;-68
2023/05/01 04:05:22;;;;;;;6.15;3.30;;;;;;;;;;5036960;27;88911;-69
2023/05/01 04:07:48;;;;;;;5.50;3.95;;;;;;;;;;5036895;28;90010;-69
2023/05/01 04:10:15;;;;;;;5.60;3.30;;;;;;;;;;5037250;28;89018;-69
2023/05/01 04:12:42;;;;;;;6.22;2.83;;;;;;;;;;5035416;28;89570;-69
2023/05/01 04:15:08;;;;;;;6.82;3.03;;;;;;;;;;5016130;28;89302;-69
2023/05/01 04:17:35;;;;;;;5.70;3.05;;;;;;;;;;5018543;28;88723;-69
2023/05/01 04:20:04;;;;;;;5.22;3.53;;;;;;;;;;5036132;28;89957;-69
2023/05/01 04:22:30;;;;;;;7.63;3.17;;;;;;;;;;5037003;28;89025;-69
2023/05/01 04:24:57;;;;;;;7.10;3.63;;;;;;;;;;5036283;28;89263;-69
2023/05/01 04:27:23;;;;;;;5.22;3.08;;;;;;;;;;5036598;27;89176;-68
2023/05/01 04:29:50;;;;;;;7.60;3.55;;;;;;;;;;5056130;27;88890;-69
2023/05/01 04:32:16;;;;;;;8.00;3.72;;;;;;;;;;5056971;27;88849;-69
2023/05/01 04:34:43;;;;;;;5.03;3.17;;;;;;;;;;5042705;27;89028;-69
2023/05/01 04:37:09;;;;;;;6.90;3.47;;;;;;;;;;5031941;27;89098;-69
2023/05/01 04:39:36;;;;;;;6.70;3.92;;;;;;;;;;5035549;28;88983;-69
2023/05/01 04:42:02;;;;;;;4.57;3.50;;;;;;;;;;5043652;27;88948;-69
2023/05/01 04:44:29;;;;;;;9.55;3.75;;;;;;;;;;5044068;27;88866;-69
2023/05/01 04:46:55;;;;;;;4.97;3.50;;;;;;;;;;5046494;27;89080;-69
2023/05/01 04:49:22;;;;;;;7.50;3.67;;;;;;;;;;5045146;27;88041;-68
2023/05/01 04:51:48;;;;;;;5.05;3.38;;;;;;;;;;5048194;27;90601;-69
2023/05/01 04:54:14;;;;;;;9.23;4.07;;;;;;;;;;5035983;27;90003;-70
2023/05/01 04:56:41;;;;;;;12.23;4.15;;;;;;;;;;5049653;27;87965;-69
2023/05/01 04:59:08;;;;;;;10.70;4.10;;;;;;;;;;5050951;27;89223;-69
2023/05/01 05:01:34;;;;;;;5.55;3.78;;;;;;;;;;5040203;27;89031;-68
2023/05/01 05:04:00;;;;;;;13.10;4.13;;;;;;;;;;5049506;27;88419;-69
2023/05/01 05:06:27;;;;;;;13.57;3.60;;;;;;;;;;5042228;27;89225;-69
2023/05/01 05:08:55;;;;;;;14.23;3.67;;;;;;;;;;5046187;27;89193;-68
2023/05/01 05:11:22;;;;;;;11.07;4.30;;;;;;;;;;5044800;27;89356;-70
2023/05/01 05:13:48;;;;;;;6.45;4.03;;;;;;;;;;5028132;28;90358;-68
2023/05/01 05:16:15;;;;;;;9.45;4.10;;;;;;;;;;5043595;27;89506;-69
2023/05/01 05:18:41;;;;;;;7.38;3.88;;;;;;;;;;5024185;27;88603;-68
2023/05/01 05:21:09;;;;;;;11.90;4.10;;;;;;;;;;5051181;27;89121;-70
2023/05/01 05:23:35;;;;;;;11.10;3.90;;;;;;;;;;5052309;27;88551;-70
2023/05/01 05:26:02;;;;;;;12.20;3.83;;;;;;;;;;5038970;27;88455;-70
2023/05/01 05:28:29;;;;;;;5.40;3.97;;;;;;;;;;5038656;27;88658;-70
2023/05/01 05:30:55;;;;;;;6.88;3.88;;;;;;;;;;5054176;27;88210;-69
2023/05/01 05:33:23;;;;;;;8.63;4.03;;;;;;;;;;5045094;27;90021;-70
2023/05/01 05:35:51;;;;;;;12.27;4.18;;;;;;;;;;5049666;27;88107;-70
2023/05/01 05:38:17;;;;;;;7.75;4.03;;;;;;;;;;5020060;27;88976;-70
2023/05/01 05:40:43;;;;;;;12.32;4.07;;;;;;;;;;5056589;27;90100;-69
2023/05/01 05:43:09;;;;;;;11.18;4.32;;;;;;;;;;5042912;27;88105;-70
2023/05/01 05:45:36;;;;;;;7.10;4.20;;;;;;;;;;5046757;27;88664;-69
2023/05/01 05:48:03;;;;;;;11.25;4.68;;;;;;;;;;5037763;27;88137;-69
2023/05/01 05:50:29;;;;;;;9.55;4.40;;;;;;;;;;5037687;28;89950;-70
2023/05/01 05:52:55;;;;;;;10.65;5.18;;;;;;;;;;5042877;27;89069;-71
2023/05/01 05:55:22;;;;;;;10.30;4.07;;;;;;;;;;5034066;27;89520;-68
2023/05/01 05:57:48;;;;;;;14.45;4.32;;;;;;;;;;5016916;28;88836;-68
2023/05/01 06:00:14;;;;;;;7.18;4.03;;;;;;;;;;5019144;28;89306;-68
2023/05/01 06:02:41;;;;;;;8.75;4.22;;;;;;;;;;5035680;28;88051;-70
2023/05/01 06:05:09;;;;;;;22.10;5.13;;;;;;;;;;5038885;27;90182;-69
2023/05/01 06:07:36;;;;;;;10.13;4.53;;;;;;;;;;5038532;28;88239;-70
2023/05/01 06:10:05;;;;;;;10.93;4.40;;;;;;;;;;5038498;28;88811;-69
2023/05/01 06:12:31;;;;;;;10.45;4.75;;;;;;;;;;5037102;27;89347;-69
2023/05/01 06:15:02;;;;;;;15.10;4.70;;;;;;;;;;5033918;28;88036;-69
2023/05/01 06:17:28;;;;;;;15.15;4.43;;;;;;;;;;5038742;28;89271;-68
2023/05/01 06:19:55;;;;;;;8.15;4.40;;;;;;;;;;5038518;28;89291;-69
2023/05/01 06:22:22;;;;;;;17.80;5.40;;;;;;;;;;5037853;28;88848;-69
2023/05/01 06:24:48;;;;;;;9.90;4.55;;;;;;;;;;5041501;28;90556;-69
2023/05/01 06:27:14;;;;;;;7.53;4.45;;;;;;;;;;5038363;27;88053;-68
2023/05/01 06:29:41;;;;;;;16.55;5.68;;;;;;;;;;5037733;27;88817;-70
2023/05/01 06:32:07;;;;;;;13.38;5.47;;;;;;;;;;5051592;27;90222;-69
2023/05/01 06:34:33;;;;;;;16.77;5.43;;;;;;;;;;5048087;27;88483;-69
2023/05/01 06:37:00;;;;;;;10.27;5.28;;;;;;;;;;5028201;27;88778;-68
2023/05/01 06:39:26;;;;;;;14.00;5.07;;;;;;;;;;5033768;27;87281;-69
2023/05/01 06:41:52;;;;;;;15.80;4.82;;;;;;;;;;5047858;27;88640;-68
2023/05/01 06:44:18;;;;;;;15.95;5.10;;;;;;;;;;5041296;27;88047;-67
2023/05/01 06:46:45;;;;;;;16.42;5.28;;;;;;;;;;5047610;27;89678;-68
2023/05/01 06:49:11;;;;;;;13.48;5.22;;;;;;;;;;5029289;27;90633;-68
2023/05/01 06:51:38;;;;;;;15.07;5.47;;;;;;;;;;5036531;27;89005;-68
2023/05/01 06:54:04;;;;;;;16.60;5.57;;;;;;;;;;5036958;27;88195;-68
2023/05/01 06:56:31;;;;;;;15.10;5.00;;;;;;;;;;5043961;27;88794;-68
2023/05/01 06:58:57;;;;;;;9.75;5.38;;;;;;;;;;5052694;27;89073;-68
2023/05/01 07:01:23;;;;;;;12.90;5.20;;;;;;;;;;5039849;27;88819;-67
2023/05/01 07:03:50;;;;;;;14.85;5.57;;;;;;;;;;5029455;27;89801;-67
2023/05/01 07:06:16;;;;;;;20.98;5.85;;;;;;;;;;5073407;27;89329;-69
2023/05/01 07:08:42;;;;;;;9.88;5.45;;;;;;;;;;5058597;27;88930;-68
2023/05/01 07:11:09;;;;;;;10.60;5.50;;;;;;;;;;5065382;27;90719;-68
2023/05/01 07:13:36;;;;;;;11.38;5.93;;;;;;;;;;5055808;27;88169;-67
2023/05/01 07:16:02;;;;;;;13.95;5.70;;;;;;;;;;5054085;27;89291;-68
2023/05/01 07:18:29;;;;;;;9.80;5.35;;;;;;;;;;5060320;27;89492;-68
2023/05/01 07:20:55;;;;;;;13.13;5.57;;;;;;;;;;5056924;27;88221;-67
2023/05/01 07:23:22;;;;;;;26.73;6.30;;;;;;;;;;5063120;27;88808;-68
2023/05/01 07:25:48;;;;;;;15.60;6.55;;;;;;;;;;5066379;27;89163;-68
2023/05/01 07:28:16;;;;;;;21.23;6.72;;;;;;;;;;5053343;27;88788;-67
2023/05/01 07:30:43;;;;;;;15.98;6.32;;;;;;;;;;5060431;27;88374;-67
2023/05/01 07:33:10;;;;;;;16.48;6.07;;;;;;;;;;5065769;27;89905;-68
2023/05/01 07:35:36;;;;;;;17.73;5.60;;;;;;;;;;5046904;27;90232;-67
2023/05/01 07:38:03;;;;;;;14.43;6.05;;;;;;;;;;5056321;27;89938;-67
2023/05/01 07:40:31;;;;;;;11.98;5.72;;;;;;;;;;5057581;27;88390;-68
2023/05/01 07:42:58;;;;;;;16.83;5.63;;;;;;;;;;5055674;27;88895;-67
2023/05/01 07:45:24;;;;;;;9.85;5.65;;;;;;;;;;5057037;27;90017;-68
2023/05/01 07:47:51;;;;;;;13.95;6.00;;;;;;;;;;5067396;27;88963;-68
2023/05/01 07:50:17;;;;;;;29.17;6.32;;;;;;;;;;5069470;27;91447;-68
2023/05/01 07:52:44;;;;;;;18.95;5.75;;;;;;;;;;5060692;27;89081;-69
2023/05/01 07:55:10;;;;;;;13.18;5.82;;;;;;;;;;5056757;27;88340;-68
2023/05/01 07:57:37;;;;;;;16.67;5.78;;;;;;;;;;5077783;27;89388;-68
2023/05/01 08:00:04;;;;;;;8.40;5.63;;;;;;;;;;5060239;27;89499;-67
2023/05/01 08:02:30;;;;;;;13.32;5.95;;;;;;;;;;5062999;27;90665;-70
2023/05/01 08:04:57;;;;;;;19.00;6.03;;;;;;;;;;5033590;27;89291;-69
2023/05/01 08:07:23;;;;;;;18.60;6.10;;;;;;;;;;5046265;27;88160;-73
2023/05/01 08:09:49;;;;;;;14.43;5.47;;;;;;;;;;5048020;27;89140;-72
2023/05/01 08:12:16;;;;;;;15.25;5.82;;;;;;;;;;5027877;27;89091;-70
2023/05/01 08:14:42;;;;;;;11.98;5.55;;;;;;;;;;5037781;27;89182;-75
2023/05/01 08:17:08;;;;;;;17.27;5.70;;;;;;;;;;5022723;27;89099;-70
2023/05/01 08:19:35;;;;;;;17.15;6.00;;;;;;;;;;5037700;27;88093;-76
2023/05/01 08:22:01;;;;;;;14.52;5.60;;;;;;;;;;5036759;27;89860;-71
2023/05/01 08:24:28;;;;;;;17.88;5.68;;;;;;;;;;5038889;27;89819;-78
2023/05/01 08:26:54;;;;;;;17.35;6.43;;;;;;;;;;5033619;27;90340;-70
2023/05/01 08:29:21;;;;;;;12.80;6.07;;;;;;;;;;5039966;27;88808;-75
2023/05/01 08:31:47;;;;;;;14.45;6.10;;;;;;;;;;5038453;27;90026;-72
2023/05/01 08:34:14;;;;;;;15.32;5.90;;;;;;;;;;5049906;27;89720;-71
2023/05/01 08:36:40;;;;;;;20.73;6.00;;;;;;;;;;5041018;27;89837;-64
2023/05/01 08:39:06;;;;;;;12.98;5.72;;;;;;;;;;5032676;28;88167;-67
2023/05/01 08:41:33;;;;;;;14.90;6.68;;;;;;;;;;5040677;28;88826;-67
2023/05/01 08:44:02;;;;;;;16.85;6.38;;;;;;;;;;5038750;27;89778;-67
2023/05/01 08:46:49;;;;;;;10.95;5.50;;;;;;;;;;5030463;27;88045;-66
2023/05/01 08:49:16;;;;;;;17.02;5.80;;;;;;;;;;5037520;28;88827;-65
2023/05/01 08:51:45;;;;;;;9.18;5.85;;;;;;;;;;5040534;28;90007;-67
2023/05/01 08:54:12;;;;;;;14.63;6.13;;;;;;;;;;5051636;27;88045;-67
2023/05/01 08:56:38;;;;;;;21.38;6.03;;;;;;;;;;5060092;27;89992;-67
2023/05/01 08:59:08;;;;;;;24.40;6.00;;;;;;;;;;5045401;27;88044;-67
2023/05/01 09:01:34;;;;;;;13.43;6.00;;;;;;;;;;5032713;27;89950;-66
2023/05/01 09:04:01;;;;;;;13.73;5.28;;;;;;;;;;5023006;27;94437;-67
2023/05/01 09:06:28;;;;;;;10.23;5.93;;;;;;;;;;5034621;27;91729;-68
2023/05/01 09:08:55;;;;;;;12.20;5.68;;;;;;;;;;5026096;27;92960;-68
2023/05/01 09:11:22;;;;;;;12.00;6.35;;;;;;;;;;5036916;28;94428;-68
2023/05/01 09:13:49;;;;;;;16.88;6.57;;;;;;;;;;5034364;28;94948;-68
2023/05/01 09:16:16;;;;;;;14.70;6.07;;;;;;;;;;5035960;27;95760;-68
2023/05/01 09:18:42;;;;;;;17.20;6.70;;;;;;;;;;5037924;27;93418;-68
2023/05/01 09:21:09;;;;;;;10.13;5.50;;;;;;;;;;5035484;28;93221;-70
2023/05/01 09:23:36;;;;;;;22.33;7.35;;;;;;;;;;5036202;28;93728;-67
2023/05/01 09:26:09;;;;;;;11.02;6.05;;;;;;;;;;5030951;27;92906;-67
2023/05/01 09:28:42;;;;;;;14.40;6.30;;;;;;;;;;5027681;27;93243;-67
2023/05/01 09:31:22;;;;;;;14.57;6.15;;;;;;;;;;5028089;27;93166;-67
2023/05/01 09:33:55;;;;;;;15.82;6.30;;;;;;;;;;5028209;27;92500;-67
2023/05/01 09:36:22;;;;;;;8.55;5.72;;;;;;;;;;5030496;27;92938;-67
2023/05/01 09:38:48;;;;;;;17.60;6.07;;;;;;;;;;5021053;27;96898;-67
2023/05/01 09:41:14;;;;;;;11.00;5.80;;;;;;;;;;5037608;27;92580;-67
2023/05/01 09:43:42;;;;;;;10.93;5.82;;;;;;;;;;5032126;27;92592;-67
2023/05/01 09:46:09;;;;;;;12.20;5.30;;;;;;;;;;5034580;27;92423;-67
2023/05/01 09:48:36;;;;;;;9.95;5.88;;;;;;;;;;5029835;27;93117;-66
2023/05/01 09:51:24;;;;;;;15.38;5.80;;;;;;;;;;5025457;27;96697;-66
2023/05/01 09:53:51;;;;;;;9.40;5.40;;;;;;;;;;5035685;28;92485;-66
2023/05/01 09:56:17;;;;;;;14.55;5.38;;;;;;;;;;5033895;27;93061;-67
2023/05/01 09:58:44;;;;;;;10.98;5.07;;;;;;;;;;5030932;27;93358;-67
2023/05/01 10:01:10;;;;;;;12.07;5.30;;;;;;;;;;5036004;28;92796;-67
2023/05/01 10:03:37;;;;;;;13.95;4.60;;;;;;;;;;5036890;27;94788;-68
2023/05/01 10:06:03;;;;;;;8.50;4.13;;;;;;;;;;5035973;27;92619;-68
2023/05/01 10:08:43;;;;;;;12.75;4.25;;;;;;;;;;5025088;27;96917;-68
2023/05/01 10:11:09;;;;;;;13.35;5.15;;;;;;;;;;5035773;28;94397;-67
2023/05/01 10:13:35;;;;;;;12.57;5.10;;;;;;;;;;5035575;27;92455;-67
2023/05/01 10:16:06;;;;;;;16.98;5.35;;;;;;;;;;5032753;27;93176;-67
2023/05/01 10:18:35;;;;;;;15.23;4.72;;;;;;;;;;5024578;27;93741;-67
2023/05/01 10:21:02;;;;;;;9.68;5.10;;;;;;;;;;5020059;27;91775;-67
2023/05/01 10:23:29;;;;;;;8.07;4.35;;;;;;;;;;5054743;27;92939;-67
2023/05/01 10:25:55;;;;;;;11.68;4.93;;;;;;;;;;5033452;27;93380;-67
2023/05/01 10:28:23;;;;;;;13.32;5.13;;;;;;;;;;5033965;27;94781;-67
2023/05/01 10:30:50;;;;;;;9.32;4.50;;;;;;;;;;5034377;27;93707;-67
2023/05/01 10:33:17;;;;;;;9.32;4.53;;;;;;;;;;5026003;27;93306;-67
2023/05/01 10:35:46;;;;;;;15.40;4.68;;;;;;;;;;5041288;27;93091;-67
2023/05/01 10:38:18;;;;;;;11.77;4.35;;;;;;;;;;5052296;27;93784;-67
2023/05/01 10:40:48;;;;;;;12.13;5.03;;;;;;;;;;5037666;27;92490;-68
2023/05/01 10:43:26;;;;;;;15.20;4.50;;;;;;;;;;5035638;27;93251;-68
2023/05/01 10:46:08;;;;;;;10.98;4.47;;;;;;;;;;5036810;27;92730;-67
2023/05/01 10:48:37;;;;;;;10.90;4.30;;;;;;;;;;5035661;28;93812;-68
2023/05/01 10:51:14;;;;;;;11.65;4.18;;;;;;;;;;5013806;28;94461;-67
2023/05/01 10:53:41;;;;;;;9.52;4.30;;;;;;;;;;5013954;28;94864;-68
2023/05/01 10:56:30;;;;;;;10.80;4.82;;;;;;;;;;5024351;27;95538;-68
2023/05/01 10:59:03;;;;;;;6.60;3.90;;;;;;;;;;5006623;28;92471;-67
2023/05/01 11:01:33;;;;;;;10.63;3.63;;;;;;;;;;5014944;28;92465;-68
2023/05/01 11:04:02;;;;;;;11.50;3.70;;;;;;;;;;5014421;28;92762;-68
2023/05/01 11:06:29;;;;;;;13.15;3.30;;;;;;;;;;5028091;27;94164;-69
2023/05/01 11:08:56;;;;;;;19.35;3.72;;;;;;;;;;5057326;27;92471;-68
2023/05/01 11:11:25;;;;;;;11.02;3.83;;;;;;;;;;5055856;27;93483;-68
2023/05/01 11:14:05;;;;;;;11.73;3.30;;;;;;;;;;5038069;27;92461;-68
2023/05/01 11:16:44;;;;;;;9.23;3.53;;;;;;;;;;5030136;27;93162;-68
2023/05/01 11:19:33;;;;;;;11.30;4.00;;;;;;;;;;5012968;28;96754;-68
2023/05/01 11:21:59;;;;;;;8.35;3.85;;;;;;;;;;5014279;28;92531;-67
2023/05/01 11:24:31;;;;;;;11.85;3.80;;;;;;;;;;5030855;27;93498;-69
2023/05/01 11:26:59;;;;;;;11.90;3.83;;;;;;;;;;5026296;27;94635;-68
2023/05/01 11:29:29;;;;;;;9.15;3.22;;;;;;;;;;5033589;27;92626;-68
2023/05/01 11:31:55;;;;;;;8.38;3.60;;;;;;;;;;5049310;27;93956;-69
2023/05/01 11:34:22;;;;;;;10.05;3.28;;;;;;;;;;5038743;27;94252;-68
2023/05/01 11:36:49;;;;;;;12.20;3.50;;;;;;;;;;5039873;27;94289;-68
2023/05/01 11:39:16;;;;;;;8.50;3.60;;;;;;;;;;5033937;27;94420;-68
2023/05/01 11:41:43;;;;;;;11.80;4.35;;;;;;;;;;5037328;27;93168;-68
2023/05/01 11:44:16;;;;;;;16.58;3.45;;;;;;;;;;5032080;27;94997;-69
2023/05/01 11:46:42;;;;;;;13.05;3.10;;;;;;;;;;5040719;27;93854;-68
2023/05/01 11:49:10;;;;;;;5.95;2.75;;;;;;;;;;5032127;27;93118;-69
2023/05/01 11:51:36;;;;;;;9.35;2.75;;;;;;;;;;5029873;27;92993;-68
2023/05/01 11:54:08;;;;;;;6.93;3.05;;;;;;;;;;5040715;27;94783;-69
2023/05/01 11:56:35;;;;;;;9.82;3.05;;;;;;;;;;5027400;27;93186;-69
2023/05/01 11:59:28;;;;;;;5.45;2.78;;;;;;;;;;5022650;27;93343;-68
2023/05/01 12:01:54;;;;;;;8.40;2.70;;;;;;;;;;5030046;27;91837;-69
2023/05/01 12:04:27;;;;;;;3.45;2.22;;;;;;;;;;5024783;27;94213;-68
2023/05/01 12:06:57;;;;;;;7.55;2.90;;;;;;;;;;5041463;27;93241;-69
2023/05/01 12:09:25;;;;;;;11.60;2.60;;;;;;;;;;5037775;27;95799;-69
2023/05/01 12:11:52;;;;;;;4.20;2.60;;;;;;;;;;5031527;27;95777;-69
2023/05/01 12:14:20;;;;;;;9.50;3.50;;;;;;;;;;5037652;27;93518;-69
2023/05/01 12:16:46;;;;;;;17.60;3.15;;;;;;;;;;5038211;27;93090;-69
2023/05/01 12:19:14;;;;;;;9.48;4.03;;;;;;;;;;5047409;27;96043;-69
2023/05/01 12:21:40;;;;;;;17.52;3.50;;;;;;;;;;5033026;27;93139;-68
2023/05/01 12:24:10;;;;;;;6.70;3.45;;;;;;;;;;5026280;27;94557;-69
2023/05/01 12:26:37;;;;;;;23.88;5.57;;;;;;;;;;5037984;27;96389;-69
2023/05/01 12:29:04;;;;;;;10.77;5.32;;;;;;;;;;5043868;27;92461;-69
2023/05/01 12:31:30;;;;;;;15.82;5.63;;;;;;;;;;5020686;28;93297;-68
2023/05/01 12:33:57;;;;;;;9.40;5.57;;;;;;;;;;5039524;27;95783;-68
2023/05/01 12:36:26;;;;;;;12.93;5.85;;;;;;;;;;5036971;28;92519;-68
2023/05/01 12:38:55;;;;;;;18.65;6.50;;;;;;;;;;5033630;28;94391;-68
2023/05/01 12:41:31;;;;;;;15.65;6.00;;;;;;;;;;5030099;27;92559;-68
2023/05/01 12:43:57;;;;;;;10.15;5.50;;;;;;;;;;5040310;27;93170;-68
2023/05/01 12:46:23;;;;;;;15.07;5.70;;;;;;;;;;5035378;27;93450;-68
2023/05/01 12:48:50;;;;;;;21.80;6.45;;;;;;;;;;5042631;27;92621;-68
2023/05/01 12:51:19;;;;;;;18.38;5.03;;;;;;;;;;5034394;27;93116;-68
2023/05/01 12:53:46;;;;;;;14.68;4.95;;;;;;;;;;5034133;27;94743;-67
2023/05/01 12:56:22;;;;;;;14.73;4.97;;;;;;;;;;5037687;27;92444;-68
2023/05/01 12:58:50;;;;;;;12.43;4.90;;;;;;;;;;5041553;27;94879;-68
2023/05/01 13:01:25;;;;;;;13.20;5.07;;;;;;;;;;5016783;27;94038;-69
2023/05/01 13:03:52;;;;;;;23.27;5.18;;;;;;;;;;5035858;27;93093;-68
2023/05/01 13:06:18;;;;;;;16.13;5.15;;;;;;;;;;5026689;28;94542;-68
2023/05/01 13:08:45;;;;;;;8.73;4.95;;;;;;;;;;5033120;28;92504;-66
2023/05/01 13:11:15;;;;;;;11.07;5.45;;;;;;;;;;5033388;28;93336;-68
2023/05/01 13:13:42;;;;;;;12.93;5.22;;;;;;;;;;5032487;27;93439;-68
2023/05/01 13:16:13;;;;;;;9.90;4.68;;;;;;;;;;5032867;27;91909;-68
2023/05/01 13:18:42;;;;;;;12.90;5.70;;;;;;;;;;5033637;28;93292;-67
2023/05/01 13:21:10;;;;;;;12.68;5.68;;;;;;;;;;5035959;27;93391;-68
2023/05/01 13:23:36;;;;;;;13.23;5.63;;;;;;;;;;5033129;27;95615;-68
2023/05/01 13:26:05;;;;;;;11.40;5.32;;;;;;;;;;5018769;28;94400;-68
2023/05/01 13:28:35;;;;;;;14.63;5.53;;;;;;;;;;5028745;27;93118;-68
2023/05/01 13:31:02;;;;;;;13.57;5.50;;;;;;;;;;5053078;27;93378;-67
2023/05/01 13:33:30;;;;;;;13.02;5.70;;;;;;;;;;5046289;27;94827;-68
2023/05/01 13:35:56;;;;;;;14.40;5.13;;;;;;;;;;5036441;28;92447;-68
2023/05/01 13:38:23;;;;;;;10.32;5.13;;;;;;;;;;5051930;27;93277;-68
2023/05/01 13:40:50;;;;;;;8.65;5.10;;;;;;;;;;5057390;27;93994;-68
2023/05/01 13:43:16;;;;;;;11.82;5.00;;;;;;;;;;5060149;27;92462;-68
2023/05/01 13:45:43;;;;;;;9.65;4.93;;;;;;;;;;5042783;27;92454;-68
2023/05/01 13:48:09;;;;;;;14.55;4.88;;;;;;;;;;5034251;28;95029;-68
2023/05/01 13:50:39;;;;;;;10.30;4.95;;;;;;;;;;5022319;27;96939;-68
2023/05/01 13:53:05;;;;;;;14.60;6.37;;;;;;;;;;5024376;27;94425;-68
2023/05/01 13:55:32;;;;;;;10.18;4.97;;;;;;;;;;5056038;27;92511;-68
2023/05/01 13:57:59;;;;;;;14.57;5.57;;;;;;;;;;5049407;27;93113;-68
2023/05/01 14:00:25;;;;;;;14.43;5.95;;;;;;;;;;5035231;27;94425;-68
2023/05/01 14:02:52;;;;;;;9.15;6.07;;;;;;;;;;5041990;27;93137;-68
2023/05/01 14:05:23;;;;;;;9.07;5.53;;;;;;;;;;5044339;27;94127;-68
2023/05/01 14:07:50;;;;;;;;;;;;;;;;;;5035352;27;92673;-68
2023/05/01 14:10:16;;;;;;;16.30;5.70;;;;;;;;;;5038266;27;123423;-68
2023/05/01 14:12:42;;;;;;;11.45;5.85;;;;;;;;;;5030588;27;95859;-68
2023/05/01 14:15:11;;;;;;;16.83;5.65;;;;;;;;;;5035960;27;92555;-68
2023/05/01 14:17:37;;;;;;;15.77;4.93;;;;;;;;;;5046839;27;94554;-68
2023/05/01 14:20:04;;;;;;;13.75;5.32;;;;;;;;;;5037794;27;93583;-67
2023/05/01 14:22:39;;;;;;;14.18;4.45;;;;;;;;;;5042954;27;92551;-68
2023/05/01 14:25:20;;;;;;;9.10;4.65;;;;;;;;;;5043196;27;93139;-68
2023/05/01 14:27:47;;;;;;;9.07;4.43;;;;;;;;;;5038075;27;92736;-68
2023/05/01 14:30:20;;;;;;;5.93;3.20;;;;;;;;;;5040876;27;92977;-68
2023/05/01 14:32:47;;;;;;;7.50;3.97;;;;;;;;;;5042176;27;93400;-69
2023/05/01 14:35:13;;;;;;;6.63;3.20;;;;;;;;;;5038728;27;92509;-68
2023/05/01 14:37:40;;;;;;;7.03;3.20;;;;;;;;;;5041941;27;95618;-68
2023/05/01 14:40:16;;;;;;;9.55;2.92;;;;;;;;;;5038776;27;93476;-68
2023/05/01 14:42:43;;;;;;;8.73;3.03;;;;;;;;;;5035507;27;92566;-68
2023/05/01 14:45:13;;;;;;;7.78;3.42;;;;;;;;;;5036000;27;93058;-68
2023/05/01 14:47:40;;;;;;;3.60;2.80;;;;;;;;;;5046667;27;94324;-69
2023/05/01 14:50:07;;;;;;;10.25;3.17;;;;;;;;;;5035349;28;94171;-69
2023/05/01 14:52:35;;;;;;;8.48;3.15;;;;;;;;;;5034546;27;93155;-69
2023/05/01 14:55:02;;;;;;;6.30;2.70;;;;;;;;;;5037946;27;91960;-66
2023/05/01 14:57:29;;;;;;;8.38;3.42;;;;;;;;;;5037117;27;92396;-68
2023/05/01 14:59:55;;;;;;;11.75;3.90;;;;;;;;;;5034620;27;93578;-68
2023/05/01 15:02:22;;;;;;;8.75;3.17;;;;;;;;;;5033482;27;94931;-69
2023/05/01 15:04:48;;;;;;;8.20;3.70;;;;;;;;;;5031154;27;97164;-69